Time;durP1;ratioP1;P1;durP2;ratioP2;P2;SDS_P1;SDS_P2;PMS_P1;PMS_P2;Temp;Humidity;BMP_temperature;BMP_pressure;BME280_temperature;BME280_humidity;BME280_pressure;Samples;Min_cycle;Max_cycle;Signal;HPM_P1;HPM_P2
2021/03/11 00:00:53;;;;;;;15.90;13.47;;;6.90;35.10;;;;;;10463115;28;20232;-75
2021/03/11 00:05:56;;;;;;;14.20;12.70;;;6.90;35.30;;;;;;10451521;28;20229;-74
2021/03/11 00:10:58;;;;;;;14.07;12.57;;;6.90;35.10;;;;;;10450980;28;20227;-75
2021/03/11 00:16:01;;;;;;;16.30;14.23;;;6.90;35.10;;;;;;10422437;28;20233;-74
2021/03/11 00:21:04;;;;;;;14.63;13.03;;;7.00;35.40;;;;;;10446609;28;20252;-75
2021/03/11 00:26:08;;;;;;;15.63;13.40;;;7.00;35.10;;;;;;10448643;28;20228;-75
2021/03/11 00:31:11;;;;;;;14.47;12.60;;;7.00;35.20;;;;;;10456240;28;20700;-75
2021/03/11 00:36:13;;;;;;;14.77;12.53;;;7.00;35.30;;;;;;10440590;28;20602;-75
2021/03/11 00:41:16;;;;;;;14.07;11.90;;;7.00;35.20;;;;;;10445932;28;20506;-75
2021/03/11 00:46:20;;;;;;;16.10;12.10;;;7.00;35.20;;;;;;10458394;28;20279;-74
2021/03/11 00:51:22;;;;;;;13.23;11.87;;;7.00;35.50;;;;;;10449797;28;20689;-75
2021/03/11 00:56:28;;;;;;;12.97;11.57;;;7.00;35.30;;;;;;10455517;28;20237;-75
2021/03/11 01:01:33;;;;;;;12.40;11.10;;;6.90;35.30;;;;;;10465205;28;20230;-75
2021/03/11 01:06:36;;;;;;;12.30;11.00;;;6.90;35.50;;;;;;10448566;28;20224;-74
2021/03/11 01:11:38;;;;;;;13.87;12.40;;;6.80;35.50;;;;;;10443332;28;20221;-75
2021/03/11 01:16:42;;;;;;;13.10;11.70;;;6.80;35.50;;;;;;10455048;28;20236;-75
2021/03/11 01:21:45;;;;;;;15.07;11.30;;;6.80;35.90;;;;;;10423615;28;20221;-75
2021/03/11 01:26:51;;;;;;;13.23;11.17;;;6.80;35.60;;;;;;10429333;28;20233;-75
2021/03/11 01:31:54;;;;;;;13.07;10.97;;;6.80;35.50;;;;;;10459207;28;20309;-75
2021/03/11 01:36:56;;;;;;;12.67;11.23;;;6.70;35.80;;;;;;10433117;28;20240;-75
2021/03/11 01:41:58;;;;;;;12.83;11.43;;;6.60;35.80;;;;;;10458168;28;20247;-75
2021/03/11 01:47:01;;;;;;;14.30;11.70;;;6.60;36.00;;;;;;10421341;28;20234;-75
2021/03/11 01:52:05;;;;;;;11.93;10.63;;;6.60;36.10;;;;;;10440035;28;20249;-75
2021/03/11 01:57:13;;;;;;;13.00;11.37;;;6.50;36.00;;;;;;10444986;28;20286;-75
2021/03/11 02:02:17;;;;;;;12.83;10.67;;;6.50;36.00;;;;;;10453168;28;20423;-75
2021/03/11 02:07:19;;;;;;;11.27;9.90;;;6.50;36.30;;;;;;10450023;28;20240;-75
2021/03/11 02:12:27;;;;;;;11.67;10.47;;;6.50;36.10;;;;;;10451112;28;20239;-75
2021/03/11 02:17:35;;;;;;;11.70;10.50;;;6.50;36.70;;;;;;10457306;28;20319;-76
2021/03/11 02:22:51;;;;;;;11.83;9.73;;;6.50;37.40;;;;;;10440059;28;20302;-75
2021/03/11 02:28:05;;;;;;;10.40;9.30;;;6.50;36.80;;;;;;10445387;28;20219;-76
2021/03/11 02:33:10;;;;;;;11.03;9.70;;;6.40;36.90;;;;;;10413774;28;20225;-76
2021/03/11 02:38:13;;;;;;;10.43;9.33;;;6.40;36.70;;;;;;10444197;28;20225;-76
2021/03/11 02:43:16;;;;;;;10.40;8.90;;;6.40;36.70;;;;;;10452035;28;20783;-76
2021/03/11 02:48:20;;;;;;;10.30;8.40;;;6.50;36.60;;;;;;10447346;28;20221;-76
2021/03/11 02:53:22;;;;;;;7.97;7.17;;;6.50;36.80;;;;;;10436236;28;20380;-76
2021/03/11 02:58:25;;;;;;;12.07;8.60;;;6.60;36.80;;;;;;10436238;28;20225;-75
2021/03/11 03:03:30;;;;;;;8.50;7.60;;;6.60;37.40;;;;;;10433118;28;20228;-76
2021/03/11 03:08:33;;;;;;;8.00;7.17;;;6.70;36.70;;;;;;10438963;28;20221;-75
2021/03/11 03:13:36;;;;;;;7.47;6.70;;;6.80;36.40;;;;;;10432386;28;20228;-75
2021/03/11 03:18:40;;;;;;;7.83;7.03;;;6.80;36.20;;;;;;10426647;28;20233;-75
2021/03/11 03:23:44;;;;;;;6.97;6.17;;;6.80;36.20;;;;;;10429664;28;20225;-75
2021/03/11 03:28:46;;;;;;;7.43;6.73;;;6.80;36.20;;;;;;10424227;28;20565;-75
2021/03/11 03:33:49;;;;;;;8.80;6.90;;;6.80;36.30;;;;;;10428308;28;20233;-75
2021/03/11 03:38:51;;;;;;;6.93;6.30;;;6.90;36.30;;;;;;10429627;28;20225;-75
2021/03/11 03:43:54;;;;;;;7.67;6.87;;;6.90;36.20;;;;;;10426433;28;20705;-75
2021/03/11 03:48:58;;;;;;;7.17;6.47;;;6.90;36.20;;;;;;10428120;28;20237;-75
2021/03/11 03:54:05;;;;;;;7.30;6.47;;;7.00;36.40;;;;;;10425600;28;20277;-75
2021/03/11 03:59:10;;;;;;;7.20;6.50;;;7.00;36.40;;;;;;10386812;28;20240;-75
2021/03/11 04:04:14;;;;;;;7.00;6.30;;;7.00;36.40;;;;;;10388827;28;20234;-74
2021/03/11 04:09:17;;;;;;;6.90;6.17;;;7.10;36.30;;;;;;10389011;28;20230;-74
2021/03/11 04:14:21;;;;;;;6.67;5.83;;;7.10;36.20;;;;;;10387727;28;20880;-74
2021/03/11 04:19:26;;;;;;;6.63;5.93;;;7.10;36.30;;;;;;10389861;28;20721;-75
2021/03/11 04:24:28;;;;;;;6.73;6.13;;;7.10;36.40;;;;;;10390024;28;20613;-75
2021/03/11 04:29:31;;;;;;;6.73;6.03;;;7.20;36.30;;;;;;10392763;28;20222;-74
2021/03/11 04:34:35;;;;;;;6.70;6.10;;;7.20;36.20;;;;;;10395008;28;20260;-74
2021/03/11 04:39:37;;;;;;;6.90;6.20;;;7.30;36.30;;;;;;10392633;28;20617;-75
2021/03/11 04:44:42;;;;;;;7.73;6.43;;;7.30;36.20;;;;;;10389925;28;20309;-74
2021/03/11 04:49:46;;;;;;;8.03;7.00;;;7.40;36.30;;;;;;10398895;28;20225;-75
2021/03/11 04:54:49;;;;;;;8.67;6.97;;;7.40;36.10;;;;;;10429665;28;20229;-75
2021/03/11 04:59:52;;;;;;;8.50;6.40;;;7.50;36.00;;;;;;10433555;28;20229;-75
2021/03/11 05:04:55;;;;;;;7.43;6.70;;;7.50;36.00;;;;;;10427257;28;20229;-75
2021/03/11 05:09:57;;;;;;;7.00;6.17;;;7.50;36.10;;;;;;10434886;28;20221;-75
2021/03/11 05:14:59;;;;;;;6.77;6.07;;;7.50;36.00;;;;;;10433610;28;20735;-75
2021/03/11 05:20:03;;;;;;;7.70;6.90;;;7.50;36.00;;;;;;10431855;28;20280;-75
2021/03/11 05:25:07;;;;;;;9.23;6.70;;;7.50;36.00;;;;;;10433623;28;20723;-74
2021/03/11 05:30:12;;;;;;;6.60;5.90;;;7.50;36.00;;;;;;10423616;28;20289;-75
2021/03/11 05:35:15;;;;;;;7.70;6.37;;;7.60;36.30;;;;;;10437147;28;20228;-75
2021/03/11 05:40:18;;;;;;;6.90;6.20;;;7.60;36.20;;;;;;10432774;28;20264;-74
2021/03/11 05:45:20;;;;;;;7.73;6.20;;;7.60;36.00;;;;;;10429172;28;20716;-75
2021/03/11 05:50:23;;;;;;;6.90;6.27;;;7.70;36.00;;;;;;10430712;28;20225;-75
2021/03/11 05:55:26;;;;;;;9.13;7.63;;;7.70;36.00;;;;;;10431725;28;20436;-75
2021/03/11 06:00:28;;;;;;;8.83;7.47;;;7.70;36.00;;;;;;10440032;28;20236;-75
2021/03/11 06:05:32;;;;;;;7.00;6.30;;;7.80;36.10;;;;;;10429418;28;20228;-75
2021/03/11 06:10:37;;;;;;;6.73;6.13;;;7.80;36.20;;;;;;10430413;28;20279;-75
2021/03/11 06:15:41;;;;;;;6.83;6.13;;;7.90;36.40;;;;;;10438816;28;20742;-75
2021/03/11 06:20:44;;;;;;;9.10;6.60;;;7.90;36.40;;;;;;10448591;28;20638;-75
2021/03/11 06:25:51;;;;;;;7.57;6.30;;;7.90;36.50;;;;;;10434210;28;20225;-75
2021/03/11 06:30:53;;;;;;;7.37;5.87;;;8.00;37.10;;;;;;10425592;28;20221;-75
2021/03/11 06:36:11;;;;;;;8.37;6.27;;;8.00;36.70;;;;;;10433521;28;20247;-75
2021/03/11 06:41:13;;;;;;;6.63;6.03;;;8.00;37.10;;;;;;10402455;28;20251;-75
2021/03/11 06:46:15;;;;;;;6.33;5.73;;;8.10;36.70;;;;;;10397278;28;20236;-75
2021/03/11 06:51:20;;;;;;;6.07;5.47;;;8.10;36.80;;;;;;10444287;28;20229;-75
2021/03/11 06:56:23;;;;;;;6.23;5.47;;;8.20;37.10;;;;;;10444103;28;20328;-75
2021/03/11 07:01:26;;;;;;;6.37;5.63;;;8.20;36.70;;;;;;10433894;28;20228;-74
2021/03/11 07:06:31;;;;;;;6.20;4.97;;;8.30;37.00;;;;;;10457153;28;20657;-75
2021/03/11 07:11:34;;;;;;;6.30;5.20;;;8.50;36.70;;;;;;10431660;28;20233;-76
2021/03/11 07:16:36;;;;;;;8.87;6.03;;;8.60;36.90;;;;;;10434875;28;20252;-76
2021/03/11 07:21:44;;;;;;;6.87;6.13;;;8.80;37.40;;;;;;10466508;28;20225;-76
2021/03/11 07:27:07;;;;;;;6.87;6.17;;;9.00;38.00;;;;;;10449934;28;20694;-76
2021/03/11 07:32:12;;;;;;;7.17;6.13;;;9.20;38.20;;;;;;10463661;28;20220;-76
2021/03/11 07:37:17;;;;;;;6.90;6.17;;;9.40;37.70;;;;;;10482259;28;20739;-76
2021/03/11 07:42:20;;;;;;;7.07;6.37;;;9.60;37.80;;;;;;10484604;28;20228;-76
2021/03/11 07:47:22;;;;;;;7.57;6.10;;;9.70;37.60;;;;;;10449260;28;20240;-78
2021/03/11 07:52:26;;;;;;;7.57;6.53;;;9.90;37.80;;;;;;10444673;28;20569;-78
2021/03/11 07:57:31;;;;;;;6.57;5.93;;;10.10;37.00;;;;;;10440326;28;20242;-77
2021/03/11 08:02:35;;;;;;;7.63;6.33;;;10.30;37.00;;;;;;10459296;28;20239;-77
2021/03/11 08:08:14;;;;;;;8.23;6.17;;;10.40;37.20;;;;;;10461409;28;20232;-78
2021/03/11 08:13:35;;;;;;;8.87;5.57;;;10.60;37.50;;;;;;10464695;28;20262;-78
2021/03/11 08:18:42;;;;;;;6.10;5.43;;;10.80;37.90;;;;;;10456436;28;20228;-75
2021/03/11 08:23:45;;;;;;;5.67;5.03;;;11.00;37.80;;;;;;10454445;28;20241;-77
2021/03/11 08:28:47;;;;;;;6.00;5.40;;;11.20;37.70;;;;;;10448344;28;20229;-76
2021/03/11 08:33:53;;;;;;;6.03;5.43;;;11.40;37.50;;;;;;10458186;28;20730;-75
2021/03/11 08:38:57;;;;;;;5.83;4.90;;;11.60;37.70;;;;;;10457137;28;20220;-76
2021/03/11 08:44:02;;;;;;;5.80;4.87;;;11.70;37.60;;;;;;10446032;28;20240;-75
2021/03/11 08:49:05;;;;;;;5.10;4.60;;;11.90;37.30;;;;;;10463136;28;20226;-75
2021/03/11 08:54:20;;;;;;;4.87;4.40;;;12.00;37.30;;;;;;10470073;28;20725;-76
2021/03/11 08:59:43;;;;;;;4.93;4.43;;;12.10;37.00;;;;;;10453329;28;20883;-76
2021/03/11 09:04:46;;;;;;;6.50;5.63;;;12.20;36.80;;;;;;10468922;28;20315;-76
2021/03/11 09:09:51;;;;;;;6.50;5.77;;;12.30;36.70;;;;;;10470921;28;20305;-75
2021/03/11 09:14:57;;;;;;;4.80;4.10;;;12.40;36.40;;;;;;10468437;28;20260;-76
2021/03/11 09:20:01;;;;;;;4.33;3.93;;;12.50;36.10;;;;;;10456033;28;20312;-75
2021/03/11 09:25:11;;;;;;;4.30;3.90;;;12.60;36.20;;;;;;10445458;28;20652;-76
2021/03/11 09:30:17;;;;;;;6.23;3.97;;;12.70;36.00;;;;;;10452357;28;20685;-76
2021/03/11 09:35:21;;;;;;;4.50;4.10;;;12.70;36.00;;;;;;10458019;28;20235;-76
2021/03/11 09:40:35;;;;;;;4.30;3.90;;;12.80;35.80;;;;;;10453293;28;20955;-76
2021/03/11 09:45:42;;;;;;;4.17;3.77;;;12.90;35.40;;;;;;10444653;28;20327;-76
2021/03/11 09:51:06;;;;;;;4.07;3.67;;;13.00;35.40;;;;;;10440079;28;20229;-75
2021/03/11 09:56:12;;;;;;;6.30;4.00;;;13.10;35.40;;;;;;10439755;28;20271;-76
2021/03/11 10:01:25;;;;;;;4.13;3.73;;;13.20;35.10;;;;;;10448006;28;20243;-76
2021/03/11 10:06:29;;;;;;;3.77;3.20;;;13.30;34.60;;;;;;10452529;28;20228;-76
2021/03/11 10:11:42;;;;;;;3.73;3.40;;;13.40;34.90;;;;;;10453184;28;20713;-76
2021/03/11 10:16:45;;;;;;;3.80;3.50;;;13.50;34.60;;;;;;10442431;28;20312;-76
2021/03/11 10:21:54;;;;;;;4.53;3.40;;;13.60;34.20;;;;;;10443272;28;20229;-76
2021/03/11 10:26:57;;;;;;;4.00;3.60;;;13.70;33.90;;;;;;10454216;28;20308;-76
2021/03/11 10:32:01;;;;;;;3.83;3.43;;;13.90;34.00;;;;;;10448098;28;20230;-76
2021/03/11 10:37:03;;;;;;;4.40;3.40;;;14.00;33.80;;;;;;10436989;28;20309;-76
2021/03/11 10:42:07;;;;;;;3.57;3.27;;;14.20;33.70;;;;;;10464424;28;20225;-76
2021/03/11 10:47:14;;;;;;;3.73;3.23;;;14.30;33.60;;;;;;10458912;28;20231;-76
2021/03/11 10:52:17;;;;;;;2.93;2.60;;;14.50;32.60;;;;;;10447756;28;20229;-76
2021/03/11 10:57:21;;;;;;;3.50;3.20;;;14.70;33.30;;;;;;10444102;28;20308;-76
2021/03/11 11:02:25;;;;;;;3.47;3.17;;;14.80;33.00;;;;;;10438903;28;20740;-76
2021/03/11 11:07:28;;;;;;;3.20;2.90;;;15.00;32.70;;;;;;10437926;28;20233;-76
2021/03/11 11:12:31;;;;;;;3.20;2.47;;;15.20;32.80;;;;;;10436146;28;20229;-76
2021/03/11 11:17:33;;;;;;;3.30;3.00;;;15.30;32.40;;;;;;10451049;28;20237;-76
2021/03/11 11:22:36;;;;;;;3.20;2.90;;;15.50;32.50;;;;;;10444002;28;20782;-76
2021/03/11 11:27:39;;;;;;;3.00;2.73;;;15.70;32.70;;;;;;10443732;28;20239;-76
2021/03/11 11:32:42;;;;;;;3.43;3.13;;;15.90;32.70;;;;;;10447307;28;20224;-76
2021/03/11 11:37:44;;;;;;;3.10;2.90;;;16.10;32.80;;;;;;10452040;28;20235;-76
2021/03/11 11:42:48;;;;;;;3.47;3.10;;;16.20;32.50;;;;;;10450963;28;20247;-76
2021/03/11 11:47:50;;;;;;;3.00;2.63;;;16.40;32.30;;;;;;10446900;28;20723;-77
2021/03/11 11:52:52;;;;;;;3.37;3.00;;;16.50;32.30;;;;;;10462655;28;20479;-77
2021/03/11 11:57:55;;;;;;;2.50;2.30;;;16.60;31.80;;;;;;10447506;28;20652;-77
2021/03/11 12:02:58;;;;;;;2.50;2.30;;;16.70;31.90;;;;;;10464357;28;20758;-77
2021/03/11 12:08:00;;;;;;;2.47;2.27;;;16.80;31.70;;;;;;10449100;28;20643;-77
2021/03/11 12:13:06;;;;;;;4.07;2.67;;;16.90;31.60;;;;;;10414604;28;20764;-76
2021/03/11 12:18:09;;;;;;;2.33;2.13;;;16.90;31.30;;;;;;10452815;28;20222;-76
2021/03/11 12:23:12;;;;;;;3.43;2.83;;;17.00;31.50;;;;;;10441089;28;20225;-76
2021/03/11 12:28:16;;;;;;;2.50;2.30;;;17.20;31.30;;;;;;10447543;28;20241;-77
2021/03/11 12:33:18;;;;;;;2.30;2.10;;;17.20;30.80;;;;;;10450540;28;20652;-76
2021/03/11 12:38:20;;;;;;;2.30;2.10;;;17.30;31.10;;;;;;10458101;28;20225;-76
2021/03/11 12:43:23;;;;;;;2.20;2.10;;;17.40;31.10;;;;;;10441115;28;20769;-76
2021/03/11 12:48:31;;;;;;;2.40;2.20;;;17.50;31.10;;;;;;10453774;28;20252;-76
2021/03/11 12:53:33;;;;;;;2.20;1.93;;;17.60;30.80;;;;;;10457119;28;20229;-76
2021/03/11 12:58:36;;;;;;;2.13;2.00;;;17.80;30.50;;;;;;10466602;28;20253;-76
2021/03/11 13:03:38;;;;;;;2.80;2.00;;;17.80;30.20;;;;;;10453580;28;20284;-76
2021/03/11 13:08:41;;;;;;;3.17;1.93;;;17.80;30.10;;;;;;10444137;28;20303;-76
2021/03/11 13:13:44;;;;;;;2.10;2.00;;;17.90;30.20;;;;;;10436168;28;20232;-76
2021/03/11 13:18:48;;;;;;;2.73;2.53;;;17.90;29.90;;;;;;10458860;28;20225;-76
2021/03/11 13:23:50;;;;;;;2.20;1.90;;;17.90;29.90;;;;;;10451795;28;20307;-76
2021/03/11 13:28:53;;;;;;;3.20;2.43;;;17.90;30.00;;;;;;10470978;28;20227;-76
2021/03/11 13:33:55;;;;;;;2.23;2.03;;;17.80;30.00;;;;;;10443944;28;20304;-76
2021/03/11 13:38:58;;;;;;;2.87;1.80;;;17.80;30.10;;;;;;10447587;28;20280;-76
2021/03/11 13:44:01;;;;;;;3.13;2.10;;;17.70;30.10;;;;;;10450528;28;20237;-76
2021/03/11 13:49:04;;;;;;;2.60;2.20;;;17.70;30.10;;;;;;10411824;28;20228;-76
2021/03/11 13:54:06;;;;;;;1.80;1.70;;;17.60;30.40;;;;;;10438886;23;20261;-85
2021/03/11 13:59:12;;;;;;;1.90;1.80;;;17.50;30.40;;;;;;10481444;28;20799;-85
2021/03/11 14:04:14;;;;;;;2.40;1.90;;;17.50;30.40;;;;;;10487560;28;20311;-85
2021/03/11 14:09:36;;;;;;;2.13;1.93;;;17.50;30.90;;;;;;10474429;28;20502;-86
2021/03/11 14:14:39;;;;;;;2.90;2.00;;;17.40;31.00;;;;;;10480877;28;20238;-85
2021/03/11 14:19:42;;;;;;;2.50;2.10;;;17.40;31.00;;;;;;10489993;28;20220;-84
2021/03/11 14:24:44;;;;;;;2.90;2.27;;;17.40;31.20;;;;;;10489180;28;20282;-84
2021/03/11 14:29:51;;;;;;;1.93;1.73;;;17.40;31.40;;;;;;10483478;28;20228;-84
2021/03/11 14:34:56;;;;;;;3.63;1.67;;;17.30;31.90;;;;;;10480256;28;20308;-84
2021/03/11 14:40:03;;;;;;;2.07;1.60;;;17.20;32.30;;;;;;10485124;28;20236;-85
2021/03/11 14:45:09;;;;;;;1.70;1.60;;;17.10;32.20;;;;;;10426177;28;20232;-85
2021/03/11 14:50:13;;;;;;;2.10;1.63;;;17.00;32.60;;;;;;10444241;28;20224;-84
2021/03/11 14:55:18;;;;;;;2.10;1.87;;;16.80;32.80;;;;;;10439299;28;20233;-85
2021/03/11 15:00:22;;;;;;;3.13;2.30;;;16.80;33.70;;;;;;10483286;28;20258;-85
2021/03/11 15:05:24;;;;;;;2.17;1.90;;;16.80;33.70;;;;;;10480147;28;20232;-84
2021/03/11 15:10:34;;;;;;;3.53;2.80;;;16.70;33.60;;;;;;10468736;28;20254;-85
2021/03/11 15:15:39;;;;;;;3.80;1.77;;;16.70;33.60;;;;;;10481246;28;20235;-84
2021/03/11 15:20:43;;;;;;;2.50;2.10;;;16.70;33.60;;;;;;10475304;28;20224;-84
2021/03/11 15:25:45;;;;;;;2.50;2.30;;;16.70;33.60;;;;;;10487240;28;20228;-84
2021/03/11 15:30:48;;;;;;;2.67;2.10;;;16.80;33.70;;;;;;10488307;28;20251;-83
2021/03/11 15:35:54;;;;;;;1.70;1.60;;;16.80;33.70;;;;;;10480341;28;20582;-83
2021/03/11 15:41:00;;;;;;;1.80;1.70;;;16.80;33.70;;;;;;10462580;28;20228;-83
2021/03/11 15:46:03;;;;;;;1.93;1.70;;;16.80;33.70;;;;;;10429161;28;20645;-83
2021/03/11 15:51:07;;;;;;;2.10;1.90;;;16.90;33.80;;;;;;10453894;28;20225;-83
2021/03/11 15:56:09;;;;;;;1.60;1.50;;;16.90;33.80;;;;;;10482088;28;20232;-83
2021/03/11 16:01:14;;;;;;;1.77;1.67;;;16.90;33.80;;;;;;10467332;28;20594;-83
2021/03/11 16:06:17;;;;;;;1.83;1.40;;;16.90;33.80;;;;;;10478152;28;20228;-83
2021/03/11 16:11:25;;;;;;;1.70;1.60;;;17.00;33.90;;;;;;10471008;28;20248;-83
2021/03/11 16:16:30;;;;;;;2.80;1.90;;;17.00;33.90;;;;;;10477276;28;20232;-83
2021/03/11 16:21:33;;;;;;;1.83;1.13;;;17.00;33.90;;;;;;10475846;28;20241;-83
2021/03/11 16:26:38;;;;;;;0.80;0.80;;;17.10;33.30;;;;;;10482700;28;20229;-83
2021/03/11 16:31:44;;;;;;;0.80;0.80;;;17.10;33.20;;;;;;10488292;28;20220;-83
2021/03/11 16:36:46;;;;;;;2.07;0.93;;;17.10;33.40;;;;;;10482486;28;20312;-85
2021/03/11 16:41:48;;;;;;;2.17;1.27;;;17.10;34.00;;;;;;10484673;28;20232;-85
2021/03/11 16:46:52;;;;;;;0.97;0.90;;;17.00;33.90;;;;;;10490524;28;20234;-85
2021/03/11 16:51:54;;;;;;;0.97;0.97;;;16.80;34.70;;;;;;10491429;28;20224;-84
2021/03/11 16:56:59;;;;;;;1.07;1.00;;;16.50;34.50;;;;;;10482696;28;20254;-85
2021/03/11 17:02:02;;;;;;;2.00;0.97;;;16.30;35.20;;;;;;10487824;28;20235;-84
2021/03/11 17:07:04;;;;;;;0.90;0.90;;;16.00;35.80;;;;;;10469728;28;20225;-84
2021/03/11 17:12:08;;;;;;;1.57;1.03;;;15.80;35.60;;;;;;10485954;28;20238;-84
2021/03/11 17:17:11;;;;;;;3.27;1.43;;;15.50;36.20;;;;;;10486647;28;20220;-85
2021/03/11 17:22:23;;;;;;;2.00;1.90;;;15.30;36.60;;;;;;10486981;28;20254;-85
2021/03/11 17:27:29;;;;;;;1.40;1.07;;;15.10;37.20;;;;;;10487461;28;20238;-84
2021/03/11 17:32:35;;;;;;;1.93;1.20;;;14.90;37.30;;;;;;10484219;28;20235;-85
2021/03/11 17:37:39;;;;;;;1.80;1.27;;;14.80;37.30;;;;;;10485558;28;20231;-84
2021/03/11 17:42:44;;;;;;;1.90;1.10;;;14.60;37.00;;;;;;10484385;28;20220;-85
2021/03/11 17:47:53;;;;;;;1.13;0.90;;;14.60;37.70;;;;;;10483100;28;20234;-84
2021/03/11 17:53:06;;;;;;;1.73;1.63;;;14.50;39.50;;;;;;10485097;28;20279;-85
2021/03/11 17:58:08;;;;;;;3.77;1.77;;;14.50;38.50;;;;;;10490484;28;20248;-85
2021/03/11 18:03:18;;;;;;;1.67;1.20;;;14.40;37.60;;;;;;10485818;28;20224;-85
2021/03/11 18:08:24;;;;;;;1.63;1.37;;;14.40;38.00;;;;;;10485374;28;21227;-85
2021/03/11 18:13:26;;;;;;;1.70;1.00;;;14.30;39.60;;;;;;10489958;28;20228;-85
2021/03/11 18:18:29;;;;;;;2.00;1.30;;;14.20;38.00;;;;;;10485671;28;20595;-86
2021/03/11 18:23:32;;;;;;;1.20;1.10;;;14.20;38.10;;;;;;10481781;28;20221;-85
2021/03/11 18:28:35;;;;;;;1.20;1.10;;;14.10;37.90;;;;;;10485493;28;20220;-86
2021/03/11 18:33:39;;;;;;;1.17;1.00;;;14.00;38.00;;;;;;10485298;28;20227;-85
2021/03/11 18:38:42;;;;;;;1.20;1.10;;;14.00;38.70;;;;;;10482684;28;20216;-85
2021/03/11 18:43:44;;;;;;;1.73;1.23;;;13.90;38.20;;;;;;10486800;28;20234;-86
2021/03/11 18:48:49;;;;;;;1.70;1.10;;;13.90;38.20;;;;;;10480934;28;20226;-86
2021/03/11 18:53:52;;;;;;;1.60;1.00;;;13.80;38.10;;;;;;10488982;28;20228;-87
2021/03/11 18:58:54;;;;;;;1.73;0.90;;;13.80;37.90;;;;;;10485922;28;20266;-86
2021/03/11 19:04:00;;;;;;;1.00;0.90;;;13.70;37.90;;;;;;10489181;28;20231;-85
2021/03/11 19:27:55;;;;;;;1.53;0.87;;;13.40;38.80;;;;;;10491769;22;20216;-75
2021/03/11 19:32:58;;;;;;;0.73;0.60;;;13.20;38.90;;;;;;10518959;28;20227;-75
2021/03/11 19:38:02;;;;;;;1.63;0.90;;;13.10;39.10;;;;;;10516935;28;20227;-75
2021/03/11 19:43:07;;;;;;;3.20;1.20;;;13.10;39.30;;;;;;10517375;28;20227;-75
2021/03/11 19:48:10;;;;;;;1.53;1.17;;;13.20;39.40;;;;;;10509374;28;20258;-75
2021/03/11 19:53:13;;;;;;;0.70;0.70;;;13.20;39.00;;;;;;10513343;28;20790;-77
2021/03/11 19:58:17;;;;;;;0.97;0.80;;;13.30;39.00;;;;;;10525745;28;20220;-75
2021/03/11 20:03:19;;;;;;;1.23;0.70;;;13.30;39.50;;;;;;10526110;28;20231;-75
2021/03/11 20:08:22;;;;;;;1.37;0.93;;;13.30;39.40;;;;;;10526284;28;20232;-75
2021/03/11 20:13:25;;;;;;;0.73;0.73;;;13.20;39.40;;;;;;10527733;28;20242;-76
2021/03/11 20:18:28;;;;;;;0.97;0.90;;;13.20;39.60;;;;;;10525866;28;20228;-76
2021/03/11 20:23:30;;;;;;;1.87;1.00;;;13.20;39.40;;;;;;10518666;28;20262;-75
2021/03/11 20:28:34;;;;;;;2.03;1.00;;;13.20;39.50;;;;;;10516967;22;20227;-73
2021/03/11 20:33:36;;;;;;;0.87;0.83;;;13.20;39.70;;;;;;10470481;28;20300;-73
2021/03/11 20:38:38;;;;;;;1.17;1.03;;;13.20;39.50;;;;;;10471456;28;20238;-72
2021/03/11 20:43:42;;;;;;;1.00;0.90;;;13.20;39.50;;;;;;10451756;28;20247;-74
2021/03/11 20:48:44;;;;;;;1.17;1.00;;;13.20;39.70;;;;;;10463470;28;20315;-74
2021/03/11 20:53:46;;;;;;;1.30;1.20;;;13.20;39.40;;;;;;10468950;28;20310;-74
2021/03/11 20:58:50;;;;;;;1.00;0.90;;;13.10;39.30;;;;;;10459636;28;20712;-74
2021/03/11 21:03:53;;;;;;;1.13;0.73;;;13.10;39.80;;;;;;10469437;28;20230;-74
2021/03/11 21:08:57;;;;;;;1.67;0.90;;;13.00;39.70;;;;;;10475478;28;20311;-74
2021/03/11 21:14:00;;;;;;;0.70;0.70;;;13.00;39.90;;;;;;10463512;28;20221;-74
2021/03/11 21:19:02;;;;;;;0.70;0.70;;;13.00;40.00;;;;;;10472694;28;20304;-74
2021/03/11 21:24:05;;;;;;;0.60;0.60;;;13.00;39.90;;;;;;10473019;28;20236;-74
2021/03/11 21:29:08;;;;;;;0.70;0.70;;;13.00;40.00;;;;;;10457440;28;20240;-73
2021/03/11 21:34:10;;;;;;;0.77;0.70;;;13.00;40.30;;;;;;10470128;28;20244;-73
2021/03/11 21:39:13;;;;;;;1.63;0.80;;;13.00;39.70;;;;;;10448588;28;20224;-73
2021/03/11 21:44:16;;;;;;;0.50;0.50;;;13.00;39.30;;;;;;10458136;28;20642;-74
2021/03/11 21:49:18;;;;;;;1.50;0.70;;;12.90;39.10;;;;;;10441116;28;20320;-74
2021/03/11 21:54:21;;;;;;;1.20;0.80;;;12.90;38.50;;;;;;10461130;28;21963;-73
2021/03/11 21:59:24;;;;;;;1.07;0.80;;;12.90;38.40;;;;;;10460577;28;20229;-73
2021/03/11 22:04:26;;;;;;;1.53;0.70;;;12.80;37.70;;;;;;10462732;28;20224;-74
2021/03/11 22:09:28;;;;;;;0.63;0.63;;;12.50;37.20;;;;;;10457956;28;20269;-73
2021/03/11 22:14:31;;;;;;;3.77;1.80;;;12.30;37.20;;;;;;10461290;28;20227;-73
2021/03/11 22:19:33;;;;;;;1.80;1.47;;;12.10;37.00;;;;;;10453868;28;20229;-73
2021/03/11 22:24:36;;;;;;;0.80;0.80;;;12.00;37.30;;;;;;10451741;28;20955;-73
2021/03/11 22:29:39;;;;;;;0.50;0.50;;;11.90;37.30;;;;;;10461829;28;20242;-73
2021/03/11 22:34:42;;;;;;;1.40;0.50;;;11.70;37.50;;;;;;10464718;28;20224;-72
2021/03/11 22:39:44;;;;;;;1.00;0.70;;;11.50;37.80;;;;;;10453734;28;20240;-72
2021/03/11 22:44:47;;;;;;;1.40;0.60;;;11.40;38.00;;;;;;10451607;28;20316;-72
2021/03/11 22:49:50;;;;;;;1.13;0.60;;;11.20;38.20;;;;;;10456485;28;20235;-73
2021/03/11 22:54:52;;;;;;;0.77;0.50;;;11.10;38.20;;;;;;10455654;28;20313;-73
2021/03/11 22:59:55;;;;;;;0.50;0.50;;;11.00;38.20;;;;;;10452351;28;20307;-72
2021/03/11 23:04:58;;;;;;;0.50;0.50;;;10.90;38.40;;;;;;10450840;28;20757;-72
2021/03/11 23:10:00;;;;;;;0.50;0.50;;;10.90;38.40;;;;;;10462292;28;20232;-72
2021/03/11 23:15:05;;;;;;;0.73;0.50;;;10.80;38.60;;;;;;10456920;28;20212;-72
2021/03/11 23:20:09;;;;;;;0.43;0.40;;;10.80;38.90;;;;;;10452244;28;20574;-72
2021/03/11 23:25:13;;;;;;;0.90;0.50;;;10.80;38.70;;;;;;10457648;28;20221;-72
2021/03/11 23:30:20;;;;;;;0.87;0.40;;;10.70;38.70;;;;;;10469558;28;20224;-73
2021/03/11 23:35:24;;;;;;;0.50;0.50;;;10.60;38.70;;;;;;10458256;28;21033;-71
2021/03/11 23:40:26;;;;;;;1.73;0.47;;;10.60;38.60;;;;;;10473478;28;20261;-71
2021/03/11 23:45:30;;;;;;;0.83;0.50;;;10.60;38.60;;;;;;10470595;28;20232;-72
2021/03/11 23:50:36;;;;;;;0.50;0.50;;;10.40;38.70;;;;;;10459359;28;20256;-71
2021/03/11 23:55:40;;;;;;;0.97;0.40;;;10.40;38.70;;;;;;10478399;28;20224;-72
